createdAt,value
2019-03-17T00:02:20.196Z,72.48
2019-03-17T00:04:48.693Z,72.47
2019-03-17T00:07:17.117Z,72.49
2019-03-17T00:09:45.862Z,72.53
2019-03-17T00:12:14.348Z,72.60
2019-03-17T00:14:42.782Z,72.64
2019-03-17T00:17:11.507Z,72.62
2019-03-17T00:19:40.130Z,72.68
2019-03-17T00:22:08.654Z,72.68
2019-03-17T00:24:37.493Z,72.62
2019-03-17T00:27:06.385Z,72.52
2019-03-17T00:29:34.820Z,72.46
2019-03-17T00:32:03.426Z,72.40
2019-03-17T00:34:43.249Z,72.38
2019-03-17T00:37:01.995Z,72.43
2019-03-17T00:39:30.577Z,72.52
2019-03-17T00:41:59.000Z,72.66
2019-03-17T00:44:27.433Z,72.55
2019-03-17T00:46:55.926Z,72.51
2019-03-17T00:49:24.352Z,72.49
2019-03-17T00:51:52.780Z,72.53
2019-03-17T00:54:21.587Z,72.34
2019-03-17T00:56:50.008Z,72.41
2019-03-17T00:59:18.493Z,72.39
2019-03-17T01:01:46.943Z,72.36
2019-03-17T01:04:15.474Z,72.36
2019-03-17T01:06:43.917Z,72.36
2019-03-17T01:09:12.358Z,72.47
2019-03-17T01:11:40.875Z,72.56
2019-03-17T01:14:09.301Z,72.67
2019-03-17T01:16:37.944Z,72.73
2019-03-17T01:19:06.433Z,72.88
2019-03-17T01:21:34.844Z,72.88
2019-03-17T01:24:03.299Z,72.87
2019-03-17T01:26:31.884Z,72.98
2019-03-17T01:29:00.523Z,73.00
2019-03-17T01:31:29.000Z,73.06
2019-03-17T01:33:57.445Z,73.03
2019-03-17T01:36:25.991Z,73.04
2019-03-17T01:38:54.453Z,73.08
2019-03-17T01:41:22.874Z,73.22
2019-03-17T01:43:51.318Z,73.12
2019-03-17T01:46:19.787Z,73.00
2019-03-17T01:48:48.228Z,72.89
2019-03-17T01:51:16.769Z,72.83
2019-03-17T01:53:45.385Z,72.91
2019-03-17T01:56:13.817Z,72.89
2019-03-17T01:58:42.308Z,72.90
2019-03-17T02:01:11.939Z,72.84
2019-03-17T02:03:40.752Z,72.80
2019-03-17T02:06:12.253Z,72.80
2019-03-17T02:08:41.168Z,72.82
2019-03-17T02:11:09.622Z,72.91
2019-03-17T02:13:38.077Z,72.92
2019-03-17T02:16:07.021Z,72.96
2019-03-17T02:18:35.468Z,72.95
2019-03-17T02:21:03.904Z,72.96
2019-03-17T02:23:32.399Z,72.97
2019-03-17T02:26:01.934Z,72.93
2019-03-17T02:28:30.413Z,72.91
2019-03-17T02:30:58.855Z,72.92
2019-03-17T02:33:27.299Z,72.93
2019-03-17T02:35:55.864Z,72.92
2019-03-17T02:38:24.306Z,72.96
2019-03-17T02:40:52.752Z,73.02
2019-03-17T02:43:21.759Z,72.98
2019-03-17T02:45:50.194Z,73.00
2019-03-17T02:48:18.735Z,72.97
2019-03-17T02:50:47.634Z,73.02
2019-03-17T02:53:16.056Z,73.07
2019-03-17T02:55:44.502Z,73.16
2019-03-17T02:58:13.070Z,73.19
2019-03-17T03:00:41.518Z,73.20
2019-03-17T03:03:09.950Z,73.16
2019-03-17T03:05:53.557Z,73.28
2019-03-17T03:08:08.683Z,73.38
2019-03-17T03:10:37.141Z,73.87
2019-03-17T03:13:05.769Z,73.89
2019-03-17T03:15:34.217Z,74.58
2019-03-17T03:18:02.629Z,74.98
2019-03-17T03:20:31.089Z,75.11
2019-03-17T03:22:59.526Z,75.51
2019-03-17T03:25:27.976Z,75.65
2019-03-17T03:27:56.670Z,75.66
2019-03-17T03:30:25.082Z,75.84
2019-03-17T03:32:53.621Z,75.91
2019-03-17T03:35:22.117Z,76.15
2019-03-17T03:37:50.563Z,76.37
2019-03-17T03:40:19.002Z,76.47
2019-03-17T03:42:47.901Z,76.48
2019-03-17T03:45:16.418Z,76.61
2019-03-17T03:47:44.856Z,76.86
2019-03-17T03:50:13.652Z,77.21
2019-03-17T03:52:42.035Z,77.40
2019-03-17T03:55:10.554Z,78.19
2019-03-17T03:57:39.067Z,79.07
2019-03-17T04:00:10.712Z,79.54
2019-03-17T04:02:39.366Z,80.14
2019-03-17T04:05:08.249Z,80.92
2019-03-17T04:07:36.669Z,81.20
2019-03-17T04:10:08.055Z,80.84
2019-03-17T04:12:36.916Z,81.02
2019-03-17T04:15:07.495Z,81.37
2019-03-17T04:17:35.919Z,81.02
2019-03-17T04:20:06.425Z,80.95
2019-03-17T04:22:34.881Z,80.85
2019-03-17T04:25:03.951Z,80.92
2019-03-17T04:27:32.925Z,80.52
2019-03-17T04:30:01.347Z,80.30
2019-03-17T04:32:29.785Z,80.00
2019-03-17T04:34:58.384Z,79.21
2019-03-17T04:37:26.825Z,79.11
2019-03-17T04:39:56.073Z,78.20
2019-03-17T04:42:24.529Z,78.00
2019-03-17T04:44:52.990Z,77.62
2019-03-17T04:47:21.428Z,77.29
2019-03-17T04:49:49.872Z,76.50
2019-03-17T04:52:18.319Z,76.38
2019-03-17T04:54:46.770Z,75.89
2019-03-17T04:57:15.342Z,75.40
2019-03-17T04:59:43.776Z,75.33
2019-03-17T05:02:13.655Z,75.04
2019-03-17T05:04:43.032Z,74.37
2019-03-17T05:07:11.472Z,74.64
2019-03-17T05:09:39.954Z,74.63
2019-03-17T05:12:08.662Z,74.73
2019-03-17T05:14:37.100Z,75.19
2019-03-17T05:17:05.540Z,75.69
2019-03-17T05:19:33.983Z,75.96
2019-03-17T05:22:02.490Z,76.23
2019-03-17T05:24:30.936Z,76.42
2019-03-17T05:26:59.406Z,76.62
2019-03-17T05:29:27.843Z,76.94
2019-03-17T05:31:56.277Z,77.37
2019-03-17T05:34:25.012Z,77.55
2019-03-17T05:37:05.593Z,77.53
2019-03-17T05:39:23.579Z,77.62
2019-03-17T05:41:52.366Z,77.75
2019-03-17T05:44:20.779Z,77.91
2019-03-17T05:46:49.218Z,78.29
2019-03-17T05:49:17.688Z,78.53
2019-03-17T05:51:46.142Z,78.94
2019-03-17T05:54:14.568Z,79.09
2019-03-17T05:56:43.236Z,79.17
2019-03-17T05:59:11.681Z,79.36
2019-03-17T06:01:40.120Z,79.58
2019-03-17T06:04:08.579Z,79.81
2019-03-17T06:06:37.849Z,79.61
2019-03-17T06:09:07.457Z,79.62
2019-03-17T06:11:35.983Z,79.41
2019-03-17T06:14:04.542Z,79.37
2019-03-17T06:16:32.956Z,79.37
2019-03-17T06:19:01.574Z,79.19
2019-03-17T06:21:29.993Z,79.18
2019-03-17T06:23:58.465Z,79.45
2019-03-17T06:26:27.007Z,79.39
2019-03-17T06:28:55.446Z,79.41
2019-03-17T06:31:23.877Z,79.82
2019-03-17T06:33:52.473Z,79.96
2019-03-17T06:36:20.853Z,80.36
2019-03-17T06:38:49.272Z,80.18
2019-03-17T06:41:18.618Z,80.31
2019-03-17T06:43:47.017Z,77.87
2019-03-17T06:46:15.453Z,77.75
2019-03-17T06:48:44.378Z,78.60
2019-03-17T06:51:12.768Z,80.15
2019-03-17T06:53:41.307Z,81.53
2019-03-17T06:56:09.751Z,81.91
2019-03-17T06:58:38.187Z,82.49
2019-03-17T07:01:06.605Z,83.46
2019-03-17T07:03:35.063Z,83.73
2019-03-17T07:06:03.498Z,84.29
2019-03-17T07:08:31.922Z,85.04
2019-03-17T07:11:00.702Z,85.02
2019-03-17T07:13:29.121Z,85.62
2019-03-17T07:15:57.564Z,85.83
2019-03-17T07:18:26.022Z,86.71
2019-03-17T07:20:54.484Z,86.46
2019-03-17T07:23:22.907Z,86.47
2019-03-17T07:25:51.351Z,86.22
2019-03-17T07:28:19.780Z,86.12
2019-03-17T07:30:48.215Z,85.54
2019-03-17T07:33:16.768Z,85.91
2019-03-17T07:35:46.450Z,85.76
2019-03-17T07:38:14.955Z,85.08
2019-03-17T07:40:43.407Z,84.67
2019-03-17T07:43:11.827Z,84.18
2019-03-17T07:45:40.265Z,83.30
2019-03-17T07:48:08.955Z,83.78
2019-03-17T07:50:37.368Z,83.84
2019-03-17T07:53:06.032Z,84.18
2019-03-17T07:55:34.593Z,83.75
2019-03-17T07:58:03.012Z,83.79
2019-03-17T08:00:32.483Z,83.93
2019-03-17T08:03:01.276Z,83.86
2019-03-17T08:05:29.761Z,83.38
2019-03-17T08:08:08.840Z,83.38
2019-03-17T08:10:28.734Z,83.23
2019-03-17T08:12:57.431Z,82.49
2019-03-17T08:15:25.868Z,82.17
2019-03-17T08:17:55.655Z,82.33
2019-03-17T08:20:24.422Z,81.88
2019-03-17T08:22:56.826Z,81.93
2019-03-17T08:25:25.546Z,81.91
2019-03-17T08:27:54.473Z,81.91
2019-03-17T08:30:23.450Z,81.84
2019-03-17T08:32:52.540Z,81.60
2019-03-17T08:35:22.637Z,81.50
2019-03-17T08:37:52.056Z,81.29
2019-03-17T08:40:21.697Z,81.03
2019-03-17T08:42:50.683Z,80.76
2019-03-17T08:45:19.454Z,80.67
2019-03-17T08:47:57.921Z,80.31
2019-03-17T08:50:19.225Z,80.33
2019-03-17T08:52:48.101Z,79.99
2019-03-17T08:55:16.538Z,79.37
2019-03-17T08:57:44.970Z,79.66
2019-03-17T09:00:18.124Z,79.11
2019-03-17T09:02:46.577Z,78.79
2019-03-17T09:05:14.984Z,78.31
2019-03-17T09:07:43.653Z,78.09
2019-03-17T09:10:13.550Z,77.51
2019-03-17T09:12:41.973Z,78.27
2019-03-17T09:15:10.677Z,78.15
2019-03-17T09:17:39.272Z,77.62
2019-03-17T09:20:12.818Z,77.08
2019-03-17T09:22:41.306Z,77.12
2019-03-17T09:25:10.943Z,76.77
2019-03-17T09:27:39.546Z,76.89
2019-03-17T09:30:26.615Z,76.53
2019-03-17T09:32:56.631Z,76.21
2019-03-17T09:35:25.467Z,76.30
2019-03-17T09:37:53.910Z,76.21
2019-03-17T09:40:22.708Z,76.13
2019-03-17T09:42:51.348Z,76.12
2019-03-17T09:45:19.730Z,76.06
2019-03-17T09:47:48.634Z,74.79
2019-03-17T09:50:21.213Z,74.89
2019-03-17T09:52:49.895Z,74.89
2019-03-17T09:55:19.776Z,74.15
2019-03-17T09:57:48.966Z,73.31
2019-03-17T10:00:21.705Z,73.32
2019-03-17T10:02:50.116Z,73.62
2019-03-17T10:05:18.616Z,72.58
2019-03-17T10:07:47.048Z,72.31
2019-03-17T10:10:21.388Z,72.44
2019-03-17T10:12:50.278Z,72.73
2019-03-17T10:15:19.947Z,72.42
2019-03-17T10:17:48.446Z,72.18
2019-03-17T10:20:20.587Z,71.14
2019-03-17T10:22:48.281Z,70.93
2019-03-17T10:25:17.653Z,70.63
2019-03-17T10:27:46.110Z,69.29
2019-03-17T10:30:21.888Z,69.17
2019-03-17T10:32:50.451Z,68.84
2019-03-17T10:35:19.146Z,68.92
2019-03-17T10:37:47.551Z,69.03
2019-03-17T10:40:18.336Z,68.55
2019-03-17T10:42:46.899Z,68.23
2019-03-17T10:45:16.274Z,67.17
2019-03-17T10:47:46.991Z,66.69
2019-03-17T10:50:20.909Z,67.11
2019-03-17T10:52:49.894Z,67.41
2019-03-17T10:55:18.721Z,67.15
2019-03-17T10:57:47.173Z,67.03
2019-03-17T11:00:23.730Z,66.36
2019-03-17T11:02:52.625Z,65.63
2019-03-17T11:05:21.442Z,65.33
2019-03-17T11:07:51.714Z,65.18
2019-03-17T11:10:22.468Z,65.11
2019-03-17T11:12:51.422Z,63.85
2019-03-17T11:15:21.317Z,63.97
2019-03-17T11:17:50.116Z,64.25
2019-03-17T11:20:18.802Z,64.44
2019-03-17T11:22:47.745Z,63.63
2019-03-17T11:25:18.377Z,62.79
2019-03-17T11:27:47.576Z,62.49
2019-03-17T11:30:18.099Z,62.02
2019-03-17T11:32:48.236Z,60.92
2019-03-17T11:35:17.386Z,60.12
2019-03-17T11:37:46.175Z,58.59
2019-03-17T11:40:19.871Z,59.46
2019-03-17T11:42:50.170Z,58.63
2019-03-17T11:45:19.097Z,59.91
2019-03-17T11:47:48.150Z,60.54
2019-03-17T11:50:18.382Z,61.57
2019-03-17T11:52:47.101Z,61.57
2019-03-17T11:55:15.909Z,62.65
2019-03-17T11:57:44.647Z,63.17
2019-03-17T12:00:17.751Z,63.51
2019-03-17T12:02:46.762Z,61.56
2019-03-17T12:05:15.554Z,61.62
2019-03-17T12:07:44.406Z,61.52
2019-03-17T12:10:20.274Z,59.41
2019-03-17T12:12:48.735Z,58.05
2019-03-17T12:15:21.691Z,57.54
2019-03-17T12:17:50.153Z,58.36
2019-03-17T12:20:18.715Z,59.23
2019-03-17T12:22:47.143Z,60.42
2019-03-17T12:25:17.454Z,60.59
2019-03-17T12:27:46.078Z,61.02
2019-03-17T12:30:19.592Z,60.94
2019-03-17T12:32:49.249Z,60.94
2019-03-17T12:35:17.955Z,61.22
2019-03-17T12:37:46.470Z,61.72
2019-03-17T12:40:14.997Z,62.38
2019-03-17T12:42:43.438Z,62.11
2019-03-17T12:45:12.532Z,61.49
2019-03-17T12:47:41.910Z,61.42
2019-03-17T12:50:18.395Z,61.50
2019-03-17T12:52:48.535Z,61.62
2019-03-17T12:55:17.266Z,61.31
2019-03-17T12:57:45.835Z,60.53
2019-03-17T13:00:23.425Z,60.10
2019-03-17T13:02:51.870Z,60.22
2019-03-17T13:05:20.343Z,59.86
2019-03-17T13:07:49.192Z,58.79
2019-03-17T13:10:22.260Z,58.92
2019-03-17T13:12:50.726Z,58.22
2019-03-17T13:15:19.723Z,58.42
2019-03-17T13:17:49.047Z,58.35
2019-03-17T13:20:19.248Z,58.04
2019-03-17T13:22:50.428Z,58.17
2019-03-17T13:25:20.713Z,58.69
2019-03-17T13:27:49.931Z,59.66
2019-03-17T13:30:20.879Z,60.26
2019-03-17T13:32:50.932Z,60.73
2019-03-17T13:35:21.148Z,61.28
2019-03-17T13:37:52.667Z,61.41
2019-03-17T13:40:29.585Z,61.74
2019-03-17T13:42:54.807Z,62.23
2019-03-17T13:45:23.845Z,62.62
2019-03-17T13:47:53.333Z,63.05
2019-03-17T13:50:25.888Z,62.71
2019-03-17T13:52:55.174Z,62.19
2019-03-17T13:55:23.708Z,61.07
2019-03-17T13:58:01.886Z,61.16
2019-03-17T14:00:33.549Z,60.71
2019-03-17T14:03:03.646Z,60.01
2019-03-17T14:05:36.608Z,59.61
2019-03-17T14:08:06.419Z,59.77
2019-03-17T14:10:41.081Z,59.91
2019-03-17T14:13:05.126Z,59.45
2019-03-17T14:15:33.750Z,58.69
2019-03-17T14:18:04.185Z,58.93
2019-03-17T14:20:32.940Z,59.36
2019-03-17T14:23:01.775Z,60.14
2019-03-17T14:25:33.262Z,60.29
2019-03-17T14:28:01.823Z,60.44
2019-03-17T14:30:30.553Z,60.87
2019-03-17T14:32:59.060Z,61.53
2019-03-17T14:35:27.509Z,62.14
2019-03-17T14:37:55.961Z,62.90
2019-03-17T14:40:24.483Z,63.81
2019-03-17T14:42:55.201Z,64.35
2019-03-17T14:45:23.120Z,65.00
2019-03-17T14:47:51.576Z,65.59
2019-03-17T14:50:26.478Z,66.04
2019-03-17T14:52:55.870Z,65.90
2019-03-17T14:55:24.301Z,65.43
2019-03-17T14:57:52.821Z,64.12
2019-03-17T15:00:23.149Z,63.01
2019-03-17T15:02:51.879Z,62.04
2019-03-17T15:05:20.653Z,61.56
2019-03-17T15:07:49.191Z,61.19
2019-03-17T15:10:19.038Z,60.85
2019-03-17T15:12:48.106Z,60.91
2019-03-17T15:15:23.721Z,61.37
2019-03-17T15:17:52.896Z,62.26
2019-03-17T15:20:26.614Z,64.43
2019-03-17T15:22:55.331Z,66.20
2019-03-17T15:25:24.004Z,68.31
2019-03-17T15:27:54.460Z,68.04
2019-03-17T15:30:34.177Z,69.30
2019-03-17T15:33:02.991Z,70.05
2019-03-17T15:35:31.668Z,70.24
2019-03-17T15:38:01.860Z,70.47
2019-03-17T15:40:30.731Z,70.48
2019-03-17T15:43:00.981Z,70.79
2019-03-17T15:45:29.638Z,70.54
2019-03-17T15:47:58.095Z,70.34
2019-03-17T15:50:30.992Z,69.80
2019-03-17T15:52:59.486Z,69.40
2019-03-17T15:55:27.950Z,68.33
2019-03-17T15:57:56.373Z,68.13
2019-03-17T16:00:31.660Z,67.08
2019-03-17T16:02:57.798Z,66.30
2019-03-17T16:05:26.290Z,66.07
2019-03-17T16:07:54.836Z,65.86
2019-03-17T16:10:24.999Z,65.11
2019-03-17T16:12:53.427Z,64.08
2019-03-17T16:15:21.923Z,62.80
2019-03-17T16:17:50.405Z,62.15
2019-03-17T16:20:22.863Z,59.48
2019-03-17T16:22:51.672Z,60.20
2019-03-17T16:25:25.662Z,60.05
2019-03-17T16:27:54.101Z,59.08
2019-03-17T16:30:33.802Z,58.59
2019-03-17T16:33:02.511Z,58.97
2019-03-17T16:35:31.003Z,58.90
2019-03-17T16:37:59.716Z,59.43
2019-03-17T16:40:32.990Z,59.33
2019-03-17T16:43:01.514Z,59.78
2019-03-17T16:45:30.002Z,60.05
2019-03-17T16:47:58.437Z,60.39
2019-03-17T16:50:27.005Z,60.67
2019-03-17T16:52:56.077Z,61.23
2019-03-17T16:55:26.851Z,61.79
2019-03-17T16:57:55.315Z,62.48
2019-03-17T17:00:25.174Z,63.39
2019-03-17T17:02:55.330Z,64.04
2019-03-17T17:05:24.877Z,65.28
2019-03-17T17:07:53.515Z,65.73
2019-03-17T17:10:23.687Z,66.71
2019-03-17T17:12:52.072Z,67.25
2019-03-17T17:15:25.918Z,66.97
2019-03-17T17:17:54.400Z,67.59
2019-03-17T17:20:36.270Z,65.60
2019-03-17T17:23:04.925Z,65.21
2019-03-17T17:25:33.342Z,64.29
2019-03-17T17:28:02.257Z,63.07
2019-03-17T17:30:30.671Z,63.63
2019-03-17T17:32:59.099Z,63.72
2019-03-17T17:35:27.544Z,63.38
2019-03-17T17:37:56.130Z,63.19
2019-03-17T17:40:26.045Z,63.16
2019-03-17T17:42:55.010Z,63.35
2019-03-17T17:45:26.856Z,62.94
2019-03-17T17:47:55.442Z,63.02
2019-03-17T17:50:25.987Z,63.00
2019-03-17T17:52:54.433Z,63.08
2019-03-17T17:55:22.856Z,63.71
2019-03-17T17:57:52.783Z,63.71
2019-03-17T18:00:23.582Z,63.69
2019-03-17T18:02:52.035Z,63.71
2019-03-17T18:05:20.781Z,63.93
2019-03-17T18:07:49.269Z,64.03
2019-03-17T18:10:18.646Z,64.25
2019-03-17T18:12:47.304Z,64.34
2019-03-17T18:15:21.822Z,64.22
2019-03-17T18:17:50.257Z,64.31
2019-03-17T18:20:19.038Z,64.37
2019-03-17T18:22:47.504Z,64.57
2019-03-17T18:25:17.698Z,64.73
2019-03-17T18:27:46.485Z,64.77
2019-03-17T18:30:17.514Z,65.22
2019-03-17T18:32:45.986Z,65.12
2019-03-17T18:35:14.716Z,65.37
2019-03-17T18:37:44.578Z,65.40
2019-03-17T18:40:22.882Z,65.62
2019-03-17T18:42:51.398Z,65.83
2019-03-17T18:45:21.269Z,66.05
2019-03-17T18:47:50.138Z,65.92
2019-03-17T18:50:20.562Z,66.00
2019-03-17T18:52:49.096Z,65.89
2019-03-17T18:55:17.576Z,65.67
2019-03-17T18:57:46.639Z,65.35
2019-03-17T19:00:17.260Z,65.30
2019-03-17T19:02:46.205Z,64.86
2019-03-17T19:05:15.856Z,64.63
2019-03-17T19:07:44.337Z,64.41
2019-03-17T19:10:17.452Z,64.24
2019-03-17T19:12:46.418Z,64.02
2019-03-17T19:15:18.469Z,63.90
2019-03-17T19:17:46.964Z,63.72
2019-03-17T19:20:16.871Z,64.17
2019-03-17T19:22:45.299Z,63.98
2019-03-17T19:25:25.008Z,64.42
2019-03-17T19:27:53.518Z,64.45
2019-03-17T19:30:22.886Z,64.49
2019-03-17T19:32:51.496Z,64.67
2019-03-17T19:35:20.346Z,64.80
2019-03-17T19:37:48.796Z,65.09
2019-03-17T19:40:21.402Z,65.42
2019-03-17T19:42:58.462Z,65.62
2019-03-17T19:45:20.605Z,65.82
2019-03-17T19:47:49.176Z,66.12
2019-03-17T19:50:24.122Z,66.54
2019-03-17T19:52:52.654Z,66.69
2019-03-17T19:55:21.560Z,66.80
2019-03-17T19:57:50.022Z,67.07
2019-03-17T20:00:22.384Z,67.48
2019-03-17T20:02:50.848Z,67.74
2019-03-17T20:05:19.313Z,68.15
2019-03-17T20:07:47.713Z,68.29
2019-03-17T20:10:30.035Z,68.62
2019-03-17T20:13:10.330Z,68.91
2019-03-17T20:15:28.643Z,69.00
2019-03-17T20:17:57.176Z,69.09
2019-03-17T20:20:25.617Z,69.34
2019-03-17T20:22:54.142Z,69.45
2019-03-17T20:25:22.719Z,70.14
2019-03-17T20:27:51.308Z,69.97
2019-03-17T20:30:20.198Z,70.16
2019-03-17T20:32:48.728Z,70.19
2019-03-17T20:35:17.818Z,70.44
2019-03-17T20:37:46.301Z,70.52
2019-03-17T20:40:18.697Z,70.73
2019-03-17T20:42:47.153Z,70.96
2019-03-17T20:45:16.252Z,70.94
2019-03-17T20:47:45.446Z,71.01
2019-03-17T20:50:20.119Z,71.14
2019-03-17T20:52:48.791Z,71.09
2019-03-17T20:55:17.643Z,71.04
2019-03-17T20:57:46.154Z,70.85
2019-03-17T21:00:19.366Z,70.88
2019-03-17T21:02:48.004Z,70.83
2019-03-17T21:05:16.618Z,70.97
2019-03-17T21:07:45.073Z,70.82
2019-03-17T21:10:17.698Z,70.77
2019-03-17T21:12:46.203Z,70.72
2019-03-17T21:15:15.956Z,70.72
2019-03-17T21:17:44.904Z,70.57
2019-03-17T21:20:18.224Z,70.58
2019-03-17T21:22:46.656Z,70.61
2019-03-17T21:25:15.105Z,70.71
2019-03-17T21:27:43.625Z,70.61
2019-03-17T21:30:15.066Z,70.69
2019-03-17T21:32:43.567Z,70.82
2019-03-17T21:35:12.165Z,70.86
2019-03-17T21:37:40.626Z,71.21
2019-03-17T21:40:11.330Z,71.12
2019-03-17T21:42:39.841Z,71.14
2019-03-17T21:45:10.368Z,71.36
2019-03-17T21:47:39.161Z,71.31
2019-03-17T21:50:10.698Z,71.39
2019-03-17T21:52:39.151Z,71.46
2019-03-17T21:55:09.157Z,71.52
2019-03-17T21:57:37.675Z,71.57
2019-03-17T22:00:09.527Z,71.59
2019-03-17T22:02:38.179Z,71.60
2019-03-17T22:05:06.691Z,71.59
2019-03-17T22:07:48.192Z,71.76
2019-03-17T22:10:08.668Z,71.72
2019-03-17T22:12:37.126Z,71.64
2019-03-17T22:15:08.245Z,71.54
2019-03-17T22:17:37.104Z,71.52
2019-03-17T22:20:10.465Z,71.58
2019-03-17T22:22:38.873Z,71.53
2019-03-17T22:25:09.222Z,71.59
2019-03-17T22:27:37.684Z,71.59
2019-03-17T22:30:12.001Z,71.61
2019-03-17T22:32:40.468Z,71.67
2019-03-17T22:35:10.284Z,71.82
2019-03-17T22:37:38.711Z,71.79
2019-03-17T22:40:10.482Z,71.79
2019-03-17T22:42:38.917Z,71.77
2019-03-17T22:45:14.838Z,71.72
2019-03-17T22:47:43.372Z,71.85
2019-03-17T22:50:19.639Z,71.74
2019-03-17T22:52:48.273Z,71.73
2019-03-17T22:55:16.876Z,71.73
2019-03-17T22:57:45.351Z,71.51
2019-03-17T23:00:20.574Z,71.44
2019-03-17T23:02:49.016Z,71.38
2019-03-17T23:05:17.457Z,71.16
2019-03-17T23:07:46.068Z,71.05
2019-03-17T23:10:14.474Z,70.96
2019-03-17T23:12:43.238Z,70.98
2019-03-17T23:15:13.114Z,70.91
2019-03-17T23:17:41.559Z,70.83
2019-03-17T23:20:15.349Z,70.80
2019-03-17T23:22:44.245Z,70.80
2019-03-17T23:25:12.957Z,71.15
2019-03-17T23:27:41.459Z,71.46
2019-03-17T23:30:18.303Z,72.55
2019-03-17T23:32:49.416Z,73.05
2019-03-17T23:35:18.349Z,73.57
2019-03-17T23:37:46.822Z,74.72
2019-03-17T23:40:16.384Z,75.86
2019-03-17T23:42:44.831Z,76.29
2019-03-17T23:45:14.249Z,77.87
2019-03-17T23:47:42.697Z,77.56
2019-03-17T23:50:12.962Z,78.14
2019-03-17T23:52:41.467Z,78.04
2019-03-17T23:55:12.217Z,78.76
2019-03-17T23:57:40.641Z,78.40
